createdAt,value
2019-01-05T00:00:52.015Z,9.00
2019-01-05T00:03:54.025Z,5.77
2019-01-05T00:06:46.863Z,5.43
2019-01-05T00:09:39.689Z,4.73
2019-01-05T00:12:27.839Z,7.80
2019-01-05T00:15:26.890Z,6.13
2019-01-05T00:18:15.967Z,5.83
2019-01-05T00:21:08.762Z,4.40
2019-01-05T00:23:59.083Z,14.83
2019-01-05T00:26:52.566Z,6.80
2019-01-05T00:29:41.036Z,10.10
2019-01-05T00:32:39.732Z,7.73
2019-01-05T00:35:31.819Z,6.77
2019-01-05T00:38:20.302Z,6.17
2019-01-05T00:41:09.626Z,9.17
2019-01-05T00:44:15.279Z,5.97
2019-01-05T00:47:05.070Z,4.57
2019-01-05T00:49:55.003Z,7.90
2019-01-05T00:52:46.012Z,7.40
2019-01-05T00:55:51.405Z,8.93
2019-01-05T00:58:41.992Z,8.30
2019-01-05T01:01:30.238Z,9.77
2019-01-05T01:04:32.198Z,10.43
2019-01-05T01:07:27.814Z,7.83
2019-01-05T01:10:17.524Z,7.07
2019-01-05T01:13:06.243Z,6.80
2019-01-05T01:15:54.876Z,9.13
2019-01-05T01:18:43.524Z,12.23
2019-01-05T01:21:36.539Z,11.87
2019-01-05T01:24:32.595Z,8.93
2019-01-05T01:27:21.334Z,8.67
2019-01-05T01:30:17.222Z,13.57
2019-01-05T01:33:06.444Z,9.43
2019-01-05T01:35:54.670Z,7.83
2019-01-05T01:39:08.367Z,8.30
2019-01-05T01:42:13.069Z,6.00
2019-01-05T01:45:06.242Z,6.70
2019-01-05T01:47:56.932Z,6.23
2019-01-05T01:50:45.696Z,6.30
2019-01-05T01:53:52.280Z,8.03
2019-01-05T01:56:43.547Z,11.83
2019-01-05T01:59:46.054Z,8.03
2019-01-05T02:02:38.442Z,7.33
2019-01-05T02:05:33.853Z,7.77
2019-01-05T02:08:25.896Z,8.77
2019-01-05T02:11:17.477Z,7.30
2019-01-05T02:14:29.874Z,11.27
2019-01-05T02:17:36.070Z,8.40
2019-01-05T02:21:29.519Z,5.47
2019-01-05T02:25:12.994Z,7.10
2019-01-05T02:29:21.250Z,4.13
2019-01-05T02:32:55.854Z,4.07
2019-01-05T02:36:46.115Z,10.97
2019-01-05T02:40:17.315Z,5.50
2019-01-05T02:44:17.095Z,3.10
2019-01-05T02:48:14.165Z,3.50
2019-01-05T02:52:09.434Z,3.40
2019-01-05T02:56:31.917Z,3.97
2019-01-05T03:00:10.060Z,3.03
2019-01-05T03:03:48.130Z,5.73
2019-01-05T03:07:44.305Z,3.53
2019-01-05T03:11:25.418Z,3.90
2019-01-05T03:15:30.659Z,2.90
2019-01-05T03:19:05.508Z,2.80
2019-01-05T03:22:36.466Z,2.27
2019-01-05T03:26:33.757Z,3.03
2019-01-05T03:30:25.171Z,2.30
2019-01-05T03:33:58.132Z,2.67
2019-01-05T03:38:10.391Z,4.00
2019-01-05T03:42:34.439Z,1.40
2019-01-05T03:46:27.272Z,2.10
2019-01-05T03:50:36.078Z,4.97
2019-01-05T03:54:12.363Z,2.27
2019-01-05T03:57:55.413Z,1.60
2019-01-05T04:01:42.816Z,1.57
2019-01-05T04:05:54.774Z,2.73
2019-01-05T04:09:48.942Z,1.97
2019-01-05T04:13:38.890Z,1.80
2019-01-05T04:17:55.426Z,1.43
2019-01-05T04:21:53.383Z,1.47
2019-01-05T04:25:30.392Z,1.23
2019-01-05T04:29:24.156Z,1.57
2019-01-05T04:33:34.329Z,2.07
2019-01-05T04:37:03.506Z,1.30
2019-01-05T04:41:10.020Z,1.27
2019-01-05T04:44:50.609Z,1.73
2019-01-05T04:48:45.014Z,1.73
2019-01-05T04:52:58.697Z,6.73
2019-01-05T04:57:05.257Z,1.43
2019-01-05T05:01:11.525Z,1.80
2019-01-05T05:04:50.947Z,1.77
2019-01-05T05:08:56.290Z,2.50
2019-01-05T05:13:02.186Z,1.80
2019-01-05T05:17:16.384Z,2.03
2019-01-05T05:21:12.089Z,2.40
2019-01-05T05:25:02.260Z,1.87
2019-01-05T05:28:57.605Z,2.13
2019-01-05T05:32:49.908Z,1.70
2019-01-05T05:36:43.962Z,1.43
2019-01-05T05:40:21.737Z,1.97
2019-01-05T05:44:08.415Z,2.73
2019-01-05T05:48:08.634Z,1.43
2019-01-05T05:51:53.763Z,2.13
2019-01-05T05:55:40.218Z,1.20
2019-01-05T05:59:42.058Z,1.23
2019-01-05T06:03:30.105Z,1.70
2019-01-05T06:07:18.292Z,1.90
2019-01-05T06:11:08.710Z,2.30
2019-01-05T06:15:13.028Z,1.10
2019-01-05T06:19:16.206Z,1.60
2019-01-05T06:23:20.412Z,3.13
2019-01-05T06:27:14.664Z,1.17
2019-01-05T06:30:50.074Z,1.43
2019-01-05T06:35:00.821Z,1.10
2019-01-05T06:39:02.459Z,1.00
2019-01-05T06:43:05.497Z,1.40
2019-01-05T06:47:03.851Z,1.27
2019-01-05T06:51:02.528Z,1.00
2019-01-05T06:55:09.891Z,1.63
2019-01-05T06:58:55.914Z,0.60
2019-01-05T07:02:47.741Z,0.80
2019-01-05T07:06:44.582Z,1.13
2019-01-05T07:10:52.146Z,2.00
2019-01-05T07:14:37.506Z,3.03
2019-01-05T07:18:34.354Z,0.70
2019-01-05T07:22:53.511Z,0.60
2019-01-05T07:27:14.813Z,1.33
2019-01-05T07:31:09.256Z,1.30
2019-01-05T07:35:05.817Z,3.97
2019-01-05T07:39:11.131Z,3.13
2019-01-05T07:42:55.386Z,2.80
2019-01-05T07:46:32.060Z,4.20
2019-01-05T07:50:14.968Z,1.23
2019-01-05T07:54:08.077Z,3.03
2019-01-05T07:57:54.176Z,3.60
2019-01-05T08:02:23.761Z,1.77
2019-01-05T08:06:39.991Z,1.27
2019-01-05T08:10:32.354Z,0.90
2019-01-05T08:14:32.104Z,4.00
2019-01-05T08:18:25.569Z,2.90
2019-01-05T08:22:03.649Z,3.43
2019-01-05T08:26:09.930Z,4.50
2019-01-05T08:29:55.186Z,4.43
2019-01-05T08:33:33.662Z,3.03
2019-01-05T08:37:06.076Z,2.80
2019-01-05T08:41:16.494Z,3.27
2019-01-05T08:45:07.647Z,2.63
2019-01-05T08:48:54.500Z,1.13
2019-01-05T08:52:33.794Z,4.90
2019-01-05T08:56:54.260Z,1.83
2019-01-05T09:00:45.914Z,3.33
2019-01-05T09:04:25.908Z,4.50
2019-01-05T09:08:18.244Z,8.33
2019-01-05T09:12:19.263Z,2.23
2019-01-05T09:16:16.821Z,1.93
2019-01-05T09:20:15.500Z,0.60
2019-01-05T09:24:06.344Z,1.83
2019-01-05T09:28:08.155Z,1.43
2019-01-05T09:31:51.534Z,1.30
2019-01-05T09:35:33.606Z,2.33
2019-01-05T09:39:13.123Z,2.50
2019-01-05T09:43:14.769Z,1.83
2019-01-05T09:47:00.594Z,5.47
2019-01-05T09:50:31.557Z,1.03
2019-01-05T09:54:47.558Z,2.43
2019-01-05T09:58:29.103Z,5.63
2019-01-05T10:02:21.481Z,3.07
2019-01-05T10:06:04.288Z,3.87
2019-01-05T10:10:14.858Z,5.17
2019-01-05T10:14:08.931Z,4.30
2019-01-05T10:18:34.375Z,2.60
2019-01-05T10:22:24.013Z,1.23
2019-01-05T10:26:23.877Z,0.90
2019-01-05T10:30:55.153Z,1.00
2019-01-05T10:35:09.612Z,1.57
2019-01-05T10:39:14.508Z,2.30
2019-01-05T10:43:14.977Z,18.60
2019-01-05T10:47:39.914Z,3.50
2019-01-05T10:51:31.686Z,11.93
2019-01-05T10:55:55.697Z,8.90
2019-01-05T10:59:56.511Z,4.57
2019-01-05T11:03:59.344Z,2.80
2019-01-05T11:07:57.930Z,3.23
2019-01-05T11:11:46.532Z,1.70
2019-01-05T11:15:52.673Z,7.17
2019-01-05T11:19:44.200Z,18.40
2019-01-05T11:23:34.212Z,6.87
2019-01-05T11:27:48.530Z,9.43
2019-01-05T11:31:24.378Z,6.67
2019-01-05T11:35:36.180Z,5.17
2019-01-05T11:39:32.316Z,4.60
2019-01-05T11:43:01.758Z,2.10
2019-01-05T11:47:07.833Z,4.77
2019-01-05T11:50:59.823Z,2.43
2019-01-05T11:54:42.534Z,8.90
2019-01-05T11:58:38.004Z,2.80
2019-01-05T12:02:33.655Z,2.50
2019-01-05T12:06:35.035Z,3.50
2019-01-05T12:10:06.975Z,2.47
2019-01-05T12:14:14.669Z,10.50
2019-01-05T12:18:14.544Z,5.10
2019-01-05T12:22:18.823Z,5.97
2019-01-05T12:26:40.713Z,5.60
2019-01-05T12:30:42.711Z,10.40
2019-01-05T12:34:26.831Z,9.10
2019-01-05T12:38:21.266Z,3.60
2019-01-05T12:42:22.248Z,8.47
2019-01-05T12:46:06.555Z,6.33
2019-01-05T12:49:53.455Z,5.90
2019-01-05T12:53:42.215Z,5.87
2019-01-05T12:57:51.374Z,3.30
2019-01-05T13:01:36.271Z,3.13
2019-01-05T13:05:22.504Z,8.83
2019-01-05T13:09:24.176Z,10.43
2019-01-05T13:13:18.836Z,8.23
2019-01-05T13:17:07.416Z,6.60
2019-01-05T13:21:07.922Z,7.57
2019-01-05T13:25:14.001Z,5.10
2019-01-05T13:29:23.710Z,10.03
2019-01-05T13:33:26.611Z,13.83
2019-01-05T13:37:05.811Z,10.57
2019-01-05T13:41:05.257Z,9.53
2019-01-05T13:45:13.181Z,15.07
2019-01-05T13:48:55.950Z,25.40
2019-01-05T13:52:47.604Z,16.20
2019-01-05T13:55:50.417Z,13.60
2019-01-05T13:58:40.145Z,10.10
2019-01-05T14:01:32.647Z,9.10
2019-01-05T14:04:37.504Z,7.97
2019-01-05T14:07:30.368Z,10.33
2019-01-05T14:10:12.532Z,8.57
2019-01-05T14:13:05.288Z,10.20
2019-01-05T14:15:59.451Z,7.23
2019-01-05T14:18:55.092Z,13.60
2019-01-05T14:21:44.879Z,11.43
2019-01-05T14:24:43.912Z,18.50
2019-01-05T14:27:31.717Z,10.37
2019-01-05T14:30:27.572Z,9.20
2019-01-05T14:33:17.287Z,15.83
2019-01-05T14:36:12.758Z,11.27
2019-01-05T14:39:04.302Z,19.07
2019-01-05T14:41:50.920Z,19.40
2019-01-05T14:44:39.184Z,17.30
2019-01-05T14:47:43.953Z,17.07
2019-01-05T14:50:32.066Z,14.77
2019-01-05T14:53:25.100Z,11.30
2019-01-05T14:56:30.086Z,26.70
2019-01-05T14:59:19.871Z,13.60
2019-01-05T15:02:15.989Z,16.37
2019-01-05T15:05:09.442Z,19.07
2019-01-05T15:08:14.947Z,25.27
2019-01-05T15:11:14.185Z,17.00
2019-01-05T15:14:06.769Z,17.50
2019-01-05T15:16:58.336Z,16.10
2019-01-05T15:19:48.042Z,16.40
2019-01-05T15:22:36.227Z,19.33
2019-01-05T15:25:24.352Z,14.70
2019-01-05T15:28:12.834Z,23.50
2019-01-05T15:31:01.628Z,15.17
2019-01-05T15:33:49.973Z,15.77
2019-01-05T15:36:56.253Z,21.27
2019-01-05T15:39:49.162Z,18.20
2019-01-05T15:42:37.582Z,26.43
2019-01-05T15:45:23.530Z,19.63
2019-01-05T15:48:16.255Z,18.97
2019-01-05T15:51:04.351Z,16.93
2019-01-05T15:54:12.721Z,28.70
2019-01-05T15:57:00.937Z,17.07
2019-01-05T15:59:53.426Z,20.87
2019-01-05T16:02:46.231Z,22.97
2019-01-05T16:05:36.026Z,25.10
2019-01-05T16:08:24.246Z,19.40
2019-01-05T16:11:10.675Z,22.50
2019-01-05T16:13:59.384Z,24.50
2019-01-05T16:16:58.374Z,23.60
2019-01-05T16:19:54.228Z,40.80
2019-01-05T16:22:46.835Z,23.43
2019-01-05T16:25:35.517Z,19.30
2019-01-05T16:28:23.582Z,36.10
2019-01-05T16:31:12.096Z,27.70
2019-01-05T16:34:04.456Z,23.33
2019-01-05T16:36:53.295Z,26.30
2019-01-05T16:39:54.919Z,33.20
2019-01-05T16:43:01.298Z,25.70
2019-01-05T16:45:59.734Z,24.93
2019-01-05T16:48:58.819Z,25.00
2019-01-05T16:51:44.878Z,39.97
2019-01-05T16:54:33.482Z,31.00
2019-01-05T16:57:14.815Z,36.50
2019-01-05T17:00:10.766Z,34.73
2019-01-05T17:03:00.475Z,33.70
2019-01-05T17:05:49.056Z,34.30
2019-01-05T17:08:37.339Z,30.83
2019-01-05T17:11:27.116Z,37.63
2019-01-05T17:14:15.288Z,31.40
2019-01-05T17:17:07.860Z,29.97
2019-01-05T17:20:00.411Z,46.27
2019-01-05T17:22:51.860Z,38.93
2019-01-05T17:25:44.465Z,38.80
2019-01-05T17:28:32.877Z,30.97
2019-01-05T17:31:26.078Z,25.77
2019-01-05T17:34:14.304Z,26.10
2019-01-05T17:37:16.248Z,32.83
2019-01-05T17:40:04.483Z,34.40
2019-01-05T17:42:56.127Z,27.73
2019-01-05T17:45:51.799Z,23.40
2019-01-05T17:48:56.648Z,37.53
2019-01-05T17:51:47.361Z,31.57
2019-01-05T17:54:39.687Z,25.43
2019-01-05T17:57:35.593Z,27.97
2019-01-05T18:00:29.080Z,26.70
2019-01-05T18:03:25.213Z,23.10
2019-01-05T18:06:18.041Z,34.50
2019-01-05T18:09:13.840Z,20.20
2019-01-05T18:12:21.809Z,26.80
2019-01-05T18:15:10.328Z,31.23
2019-01-05T18:18:05.720Z,36.43
2019-01-05T18:21:04.748Z,40.00
2019-01-05T18:23:54.542Z,35.83
2019-01-05T18:26:44.463Z,58.27
2019-01-05T18:29:40.611Z,34.60
2019-01-05T18:32:29.157Z,32.97
2019-01-05T18:35:25.221Z,38.90
2019-01-05T18:38:12.485Z,34.67
2019-01-05T18:41:00.681Z,29.50
2019-01-05T18:43:48.940Z,28.07
2019-01-05T18:46:37.354Z,29.90
2019-01-05T18:49:37.332Z,31.83
2019-01-05T18:52:27.921Z,27.80
2019-01-05T18:55:20.515Z,30.47
2019-01-05T18:58:20.575Z,36.00
2019-01-05T19:01:16.695Z,29.83
2019-01-05T19:04:15.822Z,29.73
2019-01-05T19:07:20.840Z,29.40
2019-01-05T19:10:25.937Z,30.70
2019-01-05T19:13:23.160Z,36.60
2019-01-05T19:16:27.575Z,37.83
2019-01-05T19:19:16.072Z,40.77
2019-01-05T19:22:09.314Z,38.03
2019-01-05T19:24:57.759Z,27.97
2019-01-05T19:27:53.686Z,38.10
2019-01-05T19:30:46.363Z,52.90
2019-01-05T19:33:54.423Z,35.40
2019-01-05T19:37:01.992Z,29.87
2019-01-05T19:40:08.647Z,34.50
2019-01-05T19:42:57.344Z,34.50
2019-01-05T19:45:50.046Z,38.27
2019-01-05T19:48:40.809Z,40.30
2019-01-05T19:51:31.663Z,40.40
2019-01-05T19:54:19.775Z,26.47
2019-01-05T19:57:16.556Z,24.93
2019-01-05T20:00:04.875Z,35.87
2019-01-05T20:02:57.754Z,31.07
2019-01-05T20:06:02.898Z,22.57
2019-01-05T20:08:51.666Z,25.27
2019-01-05T20:11:51.023Z,28.47
2019-01-05T20:14:36.761Z,29.53
2019-01-05T20:17:22.397Z,29.10
2019-01-05T20:20:21.939Z,31.60
2019-01-05T20:23:10.893Z,30.67
2019-01-05T20:26:02.889Z,40.20
2019-01-05T20:28:53.328Z,32.40
2019-01-05T20:31:40.702Z,28.20
2019-01-05T20:34:29.503Z,34.83
2019-01-05T20:37:25.625Z,27.33
2019-01-05T20:40:34.325Z,27.97
2019-01-05T20:43:33.391Z,26.97
2019-01-05T20:46:21.624Z,31.87
2019-01-05T20:49:20.849Z,23.83
2019-01-05T20:52:12.107Z,22.00
2019-01-05T20:55:02.182Z,36.93
2019-01-05T20:57:48.033Z,26.80
2019-01-05T21:00:47.055Z,25.60
2019-01-05T21:03:39.965Z,32.20
2019-01-05T21:06:35.461Z,31.57
2019-01-05T21:09:25.619Z,32.03
2019-01-05T21:12:16.040Z,31.27
2019-01-05T21:15:04.430Z,37.23
2019-01-05T21:17:53.426Z,36.70
2019-01-05T21:20:44.291Z,28.83
2019-01-05T21:23:32.843Z,30.27
2019-01-05T21:26:31.839Z,25.57
2019-01-05T21:29:33.590Z,33.43
2019-01-05T21:32:28.249Z,31.27
2019-01-05T21:35:20.965Z,49.07
2019-01-05T21:38:07.001Z,31.13
2019-01-05T21:40:57.003Z,34.23
2019-01-05T21:43:50.128Z,28.40
2019-01-05T21:46:40.589Z,45.93
2019-01-05T21:49:28.789Z,44.43
2019-01-05T21:52:18.579Z,34.40
2019-01-05T21:55:20.779Z,44.83
2019-01-05T21:58:10.532Z,36.77
2019-01-05T22:00:51.548Z,36.50
2019-01-05T22:03:37.655Z,36.80
2019-01-05T22:06:26.025Z,27.27
2019-01-05T22:09:28.190Z,42.83
2019-01-05T22:12:25.602Z,34.50
2019-01-05T22:15:17.353Z,32.73
2019-01-05T22:18:07.124Z,29.00
2019-01-05T22:20:53.052Z,28.73
2019-01-05T22:23:46.769Z,33.03
2019-01-05T22:26:34.880Z,35.67
2019-01-05T22:29:37.130Z,27.90
2019-01-05T22:32:38.814Z,35.30
2019-01-05T22:35:31.829Z,32.77
2019-01-05T22:38:24.651Z,20.13
2019-01-05T22:41:09.907Z,28.97
2019-01-05T22:44:08.998Z,23.17
2019-01-05T22:47:05.966Z,24.93
2019-01-05T22:49:54.324Z,32.80
2019-01-05T22:52:52.105Z,27.33
2019-01-05T22:55:52.472Z,21.47
2019-01-05T22:58:42.576Z,23.40
2019-01-05T23:01:38.288Z,25.03
2019-01-05T23:04:40.190Z,22.87
2019-01-05T23:07:33.011Z,25.50
2019-01-05T23:10:22.833Z,27.13
2019-01-05T23:13:30.740Z,37.77
2019-01-05T23:16:25.203Z,33.93
2019-01-05T23:19:18.345Z,29.23
2019-01-05T23:22:26.121Z,22.93
2019-01-05T23:25:14.463Z,24.77
2019-01-05T23:28:04.214Z,22.13
2019-01-05T23:30:56.860Z,24.27
2019-01-05T23:33:46.649Z,20.73
2019-01-05T23:36:51.627Z,27.67
2019-01-05T23:39:39.581Z,19.03
2019-01-05T23:42:29.781Z,19.23
2019-01-05T23:45:34.540Z,21.93
2019-01-05T23:48:22.757Z,17.97
2019-01-05T23:51:11.014Z,23.33
2019-01-05T23:54:00.429Z,21.00
2019-01-05T23:56:50.303Z,23.20
2019-01-05T23:59:38.057Z,33.67
